Airfield :
LOGIN :

Register | Disclaimer

   EN    FR    IT 

 










Legend :    VFR   Marginal VFR   IFR   Intensive IFR   Very Intensive IFR
Visi :
Ceiling :
>= 8 km
>= 3000ft
5 to 8 km
1000 to 3000 ft
1500m to 5 km
500 to 1000 ft
800 to 1500m
200 to 500 ft
< 800m
< 200 ft
Symbols :   Thunderstorms  Fog  Heavy snow  Heavy precipitations  Wind > 20 kt
SIGMETs :     Misc.  Thunderstorms  Icing  Turbulence  Mountain Waves  Volcanic Ashes







- Airport Elevation : 995 ft
- IATA code : KTW


EPKT - Katowice

CURRENT METAR :
  • 150330Z 05007KT 9000 -SN SCT009 BKN016 M01/M03 Q1024

EXPIRED METARs :
  • 150300Z 04006KT 8000 -SN SCT008 BKN017 M01/M03 Q1024
  • 150230Z 04006KT 8000 -SN FEW009 OVC033 M01/M03 Q1024
  • 150200Z 04007KT 8000 -SN FEW009 BKN032 M01/M03 Q1024
  • 150130Z 04007KT 8000 -SN FEW007 BKN030 M01/M03 Q1024
  • 150100Z 04007KT 7000 -SN SCT008 BKN011 M01/M03 Q1024

TAF AMD TAF EPKT
Valid from the 15 at 01:00 until the 16 at 00:00 UTC


150120Z 1501/1524 05008KT 7000 SCT007 OVC030
TEMPO 1501/1509 BKN007 OVC013
TEMPO 1509/1515 08015G25KT BKN008 OVC017
BECMG 1518/1521 BKN007 OVC014
TEMPO 1521/1524 3500 -SN BR BKN004 OVC010
No reported NOTAMs for that airfield.



MET'MAP, your aeronautical weather chart ! - Copyright ORBIFLY December 2007 - Disclaimer

ORBIFLY MET'MAP TEAM :

Programming & Development : Alexandra Zaïnal
Concept & Development : Baudouin d'Aumeries
Co-Development & Prog : Marc-Olivier Méhu
Technical & hardware support : Manuel Goepfert

Contact : metmap@orbifly.com




SOURCES & CREDITS :

   NOAA